Time;durP1;ratioP1;P1;durP2;ratioP2;P2;SDS_P1;SDS_P2;PMS_P1;PMS_P2;Temp;Humidity;BMP_temperature;BMP_pressure;BME280_temperature;BME280_humidity;BME280_pressure;Samples;Min_cycle;Max_cycle;Signal;HPM_P1;HPM_P2
2024/03/16 00:01:01;;;;;;;70.80;65.10;;;;;;;5.90;100.00;101538.41;5072115;28;20052;-67
2024/03/16 00:03:28;;;;;;;64.22;58.92;;;;;;;6.08;100.00;101538.41;5073607;28;20471;-67
2024/03/16 00:05:56;;;;;;;68.68;62.97;;;;;;;6.05;100.00;101536.06;5073297;28;20087;-68
2024/03/16 00:08:24;;;;;;;61.80;56.70;;;;;;;5.89;100.00;101540.22;5071986;28;20086;-68
2024/03/16 00:10:51;;;;;;;60.90;55.78;;;;;;;5.98;100.00;101543.78;5074452;28;20054;-70
2024/03/16 00:13:18;;;;;;;58.17;53.25;;;;;;;6.02;100.00;101533.75;5072279;28;20046;-70
2024/03/16 00:15:49;;;;;;;61.28;56.28;;;;;;;5.96;100.00;101543.09;5074009;28;20584;-69
2024/03/16 00:18:16;;;;;;;67.28;61.53;;;;;;;6.00;100.00;101549.75;5072695;28;20058;-70
2024/03/16 00:20:43;;;;;;;64.90;59.60;;;;;;;5.98;100.00;101549.06;5072837;28;20101;-70
2024/03/16 00:23:10;;;;;;;61.65;56.45;;;;;;;5.95;100.00;101549.38;5073659;28;20055;-70
2024/03/16 00:25:37;;;;;;;72.78;66.88;;;;;;;5.95;100.00;101544.91;5073254;28;20055;-67
2024/03/16 00:28:04;;;;;;;71.30;64.90;;;;;;;6.01;100.00;101543.47;5104438;28;20106;-67
2024/03/16 00:30:31;;;;;;;68.00;62.50;;;;;;;6.02;100.00;101549.56;5073098;28;20442;-67
2024/03/16 00:32:58;;;;;;;60.95;55.85;;;;;;;5.92;100.00;101536.47;5071249;28;20054;-67
2024/03/16 00:35:26;;;;;;;67.22;61.40;;;;;;;5.68;100.00;101532.69;5072182;28;20056;-67
2024/03/16 00:37:54;;;;;;;69.25;63.83;;;;;;;5.60;100.00;101539.69;5071689;28;20048;-68
2024/03/16 00:40:21;;;;;;;64.28;58.75;;;;;;;5.78;100.00;101537.88;5071413;28;20051;-68
2024/03/16 00:42:48;;;;;;;64.97;58.97;;;;;;;5.89;100.00;101531.50;5072160;28;20047;-68
2024/03/16 00:45:15;;;;;;;64.55;59.15;;;;;;;5.96;100.00;101535.19;5070997;28;20056;-68
2024/03/16 00:47:42;;;;;;;70.85;65.18;;;;;;;6.00;100.00;101531.28;5071737;28;20108;-68
2024/03/16 00:50:10;;;;;;;73.10;67.20;;;;;;;6.02;100.00;101523.19;5071717;28;20055;-68
2024/03/16 00:52:36;;;;;;;69.20;63.47;;;;;;;6.02;100.00;101521.41;5066784;28;20043;-67
2024/03/16 00:55:04;;;;;;;64.53;59.20;;;;;;;6.01;100.00;101527.66;5071763;28;20112;-68
2024/03/16 00:57:31;;;;;;;66.60;61.15;;;;;;;5.88;100.00;101524.59;5072912;28;20083;-67
2024/03/16 00:59:58;;;;;;;69.07;63.70;;;;;;;5.74;100.00;101533.88;5070719;28;20058;-67
2024/03/16 01:02:25;;;;;;;67.68;62.28;;;;;;;5.84;100.00;101531.13;5071143;28;20572;-68
2024/03/16 01:04:52;;;;;;;69.63;63.65;;;;;;;5.77;100.00;101536.19;5070108;28;20152;-68
2024/03/16 01:07:19;;;;;;;70.13;64.53;;;;;;;5.74;100.00;101533.88;5071967;28;20040;-70
2024/03/16 01:09:46;;;;;;;74.47;68.65;;;;;;;5.90;100.00;101523.44;5072888;28;20567;-70
2024/03/16 01:12:13;;;;;;;68.35;62.80;;;;;;;5.89;100.00;101528.88;5070842;28;20051;-70
2024/03/16 01:14:41;;;;;;;70.85;65.28;;;;;;;5.91;100.00;101529.56;5101526;28;20051;-70
2024/03/16 01:17:08;;;;;;;62.25;57.08;;;;;;;5.93;100.00;101524.97;5073511;28;20130;-69
2024/03/16 01:19:38;;;;;;;77.10;70.78;;;;;;;6.00;100.00;101522.56;5072590;28;20056;-70
2024/03/16 01:22:05;;;;;;;61.70;55.88;;;;;;;5.95;100.00;101525.63;5070384;28;20096;-70
2024/03/16 01:24:32;;;;;;;63.42;57.92;;;;;;;5.93;100.00;101520.53;5071520;28;20100;-69
2024/03/16 01:26:59;;;;;;;63.80;58.40;;;;;;;5.61;100.00;101525.56;5072546;28;20138;-69
2024/03/16 01:29:28;;;;;;;66.15;60.75;;;;;;;5.72;100.00;101523.50;5068052;28;20043;-70
2024/03/16 01:31:55;;;;;;;63.88;58.60;;;;;;;5.77;100.00;101522.19;5071260;28;20053;-70
2024/03/16 01:34:22;;;;;;;60.00;55.10;;;;;;;5.85;100.00;101523.09;5106582;28;20055;-69
2024/03/16 01:36:49;;;;;;;64.38;58.67;;;;;;;5.89;100.00;101527.06;5071979;28;20111;-71
2024/03/16 01:39:16;;;;;;;64.30;58.92;;;;;;;5.78;100.00;101529.13;5072138;28;20504;-71
2024/03/16 01:41:43;;;;;;;66.07;60.72;;;;;;;5.70;100.00;101530.72;5070394;28;20048;-69
2024/03/16 01:44:11;;;;;;;64.53;59.22;;;;;;;5.69;100.00;101530.88;5071479;28;20062;-70
2024/03/16 01:46:39;;;;;;;75.97;69.97;;;;;;;5.73;100.00;101537.50;5071402;28;20066;-70
2024/03/16 01:49:07;;;;;;;74.82;69.03;;;;;;;5.62;100.00;101529.84;5067747;28;20056;-70
2024/03/16 01:51:34;;;;;;;67.55;62.05;;;;;;;5.59;100.00;101532.78;5072200;28;20708;-69
2024/03/16 01:54:01;;;;;;;65.57;59.95;;;;;;;5.66;100.00;101532.03;5068168;28;20047;-69
2024/03/16 01:56:29;;;;;;;67.43;61.92;;;;;;;5.58;100.00;101528.50;5071773;28;20082;-71
2024/03/16 01:58:56;;;;;;;61.80;56.55;;;;;;;5.36;100.00;101529.81;5072371;28;20499;-70
2024/03/16 02:01:23;;;;;;;69.85;63.67;;;;;;;5.58;100.00;101529.31;5069423;28;20063;-70
2024/03/16 02:03:51;;;;;;;79.13;73.03;;;;;;;5.64;100.00;101538.41;5072759;28;20047;-69
2024/03/16 02:06:18;;;;;;;76.13;70.25;;;;;;;5.57;100.00;101540.00;5071838;28;20074;-69
2024/03/16 02:08:45;;;;;;;74.90;69.15;;;;;;;5.61;100.00;101544.00;5068786;28;20047;-69
2024/03/16 02:11:13;;;;;;;62.33;57.03;;;;;;;5.49;100.00;101535.50;5069554;28;20431;-69
2024/03/16 02:13:40;;;;;;;59.38;54.25;;;;;;;5.12;100.00;101538.31;5071737;28;20056;-70
2024/03/16 02:16:07;;;;;;;61.95;56.85;;;;;;;5.11;100.00;101536.63;5070322;28;20128;-70
2024/03/16 02:18:36;;;;;;;67.32;62.03;;;;;;;5.16;100.00;101539.66;5069209;28;20059;-69
2024/03/16 02:21:04;;;;;;;65.82;60.03;;;;;;;5.17;100.00;101533.41;5066545;28;20047;-69
2024/03/16 02:23:32;;;;;;;66.07;60.58;;;;;;;5.21;100.00;101543.50;5072484;28;20159;-69
2024/03/16 02:25:59;;;;;;;66.32;60.80;;;;;;;5.25;100.00;101547.47;5070681;28;20060;-69
2024/03/16 02:28:26;;;;;;;71.95;66.30;;;;;;;5.28;100.00;101549.00;5070238;28;20083;-70
2024/03/16 02:30:53;;;;;;;62.75;57.55;;;;;;;5.24;100.00;101545.00;5070997;28;20100;-70
2024/03/16 02:33:20;;;;;;;61.17;56.17;;;;;;;5.10;100.00;101550.78;5069873;28;20108;-69
2024/03/16 02:35:47;;;;;;;63.08;57.17;;;;;;;5.14;100.00;101544.25;5065917;28;20108;-70
2024/03/16 02:38:14;;;;;;;59.63;54.70;;;;;;;4.89;100.00;101545.81;5068624;28;20434;-70
2024/03/16 02:40:42;;;;;;;59.40;53.97;;;;;;;4.92;100.00;101551.59;5071319;28;20047;-70
2024/03/16 02:43:09;;;;;;;62.95;57.63;;;;;;;5.00;100.00;101542.97;5073399;28;20063;-69
2024/03/16 02:45:36;;;;;;;58.97;53.80;;;;;;;5.00;100.00;101551.69;5087367;28;20077;-69
2024/03/16 02:48:05;;;;;;;63.50;58.40;;;;;;;5.09;100.00;101549.97;5068326;28;20052;-69
2024/03/16 02:50:32;;;;;;;54.72;50.05;;;;;;;4.99;100.00;101555.31;5070696;28;20068;-68
2024/03/16 02:52:59;;;;;;;56.70;52.10;;;;;;;5.02;100.00;101554.16;5065510;28;20575;-67
2024/03/16 02:55:26;;;;;;;61.00;55.95;;;;;;;4.83;100.00;101550.69;5070089;28;20171;-67
2024/03/16 02:57:53;;;;;;;59.22;54.47;;;;;;;4.63;100.00;101551.78;5070267;28;20120;-68
2024/03/16 03:00:21;;;;;;;50.90;46.53;;;;;;;4.51;100.00;101545.88;5069308;28;20054;-69
2024/03/16 03:02:48;;;;;;;59.60;54.90;;;;;;;4.45;100.00;101545.63;5067561;28;20056;-69
2024/03/16 03:05:19;;;;;;;64.60;59.38;;;;;;;4.48;100.00;101547.94;5071076;28;20048;-69
2024/03/16 03:07:46;;;;;;;68.65;63.10;;;;;;;4.19;100.00;101545.47;5070740;28;20055;-67
2024/03/16 03:10:13;;;;;;;59.17;54.00;;;;;;;4.08;100.00;101549.91;5068311;28;20059;-67
2024/03/16 03:12:40;;;;;;;58.65;53.67;;;;;;;3.75;100.00;101553.88;5069549;28;20056;-68
2024/03/16 03:15:09;;;;;;;61.28;56.38;;;;;;;3.62;100.00;101543.66;5070180;28;20105;-67
2024/03/16 03:17:36;;;;;;;61.72;56.63;;;;;;;3.63;100.00;101545.31;5071162;28;20056;-67
2024/03/16 03:20:05;;;;;;;61.67;56.30;;;;;;;3.84;100.00;101545.16;5101354;28;20047;-67
2024/03/16 03:22:32;;;;;;;56.90;52.30;;;;;;;4.27;100.00;101548.22;5069769;28;20054;-67
2024/03/16 03:24:59;;;;;;;51.40;47.20;;;;;;;3.43;100.00;101538.41;5066513;28;20091;-69
2024/03/16 03:27:26;;;;;;;57.63;52.53;;;;;;;3.42;100.00;101547.28;5069274;28;20056;-67
2024/03/16 03:29:53;;;;;;;55.15;50.47;;;;;;;3.48;100.00;101549.34;5069169;28;20047;-67
2024/03/16 03:32:20;;;;;;;58.67;53.53;;;;;;;3.25;100.00;101550.59;5073612;28;20067;-67
2024/03/16 03:34:47;;;;;;;52.63;48.30;;;;;;;3.29;100.00;101547.53;5072789;28;20047;-68
2024/03/16 03:37:14;;;;;;;44.80;40.88;;;;;;;3.17;100.00;101548.63;5074034;28;20062;-71
2024/03/16 03:39:42;;;;;;;46.67;42.83;;;;;;;3.05;100.00;101554.97;5074368;28;20051;-69
2024/03/16 03:42:11;;;;;;;47.72;43.75;;;;;;;3.15;100.00;101561.09;5074694;28;20059;-69
2024/03/16 03:44:39;;;;;;;50.65;46.35;;;;;;;3.25;100.00;101561.09;5073211;28;20438;-69
2024/03/16 03:47:07;;;;;;;48.35;43.45;;;;;;;2.94;100.00;101564.63;5073648;28;20570;-69
2024/03/16 03:49:35;;;;;;;47.58;43.20;;;;;;;2.94;100.00;101571.69;5074614;28;20048;-70
2024/03/16 03:52:03;;;;;;;45.88;42.25;;;;;;;3.08;100.00;101571.28;5074042;28;20128;-70
2024/03/16 03:54:31;;;;;;;47.63;43.72;;;;;;;2.78;100.00;101576.59;5070212;28;20127;-69
2024/03/16 03:56:58;;;;;;;47.35;43.35;;;;;;;2.81;100.00;101568.47;5075465;28;20056;-69
2024/03/16 03:59:25;;;;;;;42.70;39.30;;;;;;;2.76;100.00;101571.50;5072950;28;20096;-70
2024/03/16 04:01:52;;;;;;;40.25;37.05;;;;;;;2.81;100.00;101574.53;5073658;28;20083;-70
2024/03/16 04:04:19;;;;;;;42.42;38.92;;;;;;;2.74;100.00;101565.56;5074157;28;20055;-69
2024/03/16 04:06:46;;;;;;;45.60;41.80;;;;;;;2.70;100.00;101572.88;5073590;28;20051;-70
2024/03/16 04:09:14;;;;;;;38.80;35.70;;;;;;;2.30;100.00;101570.25;5074185;28;20113;-67
2024/03/16 04:11:41;;;;;;;38.53;35.22;;;;;;;2.02;100.00;101569.94;5072462;28;20051;-70
2024/03/16 04:14:08;;;;;;;40.55;36.90;;;;;;;2.11;100.00;101570.94;5074306;28;20108;-70
2024/03/16 04:16:35;;;;;;;40.17;37.08;;;;;;;2.29;100.00;101579.03;5073894;28;20108;-70
2024/03/16 04:19:03;;;;;;;39.35;36.30;;;;;;;2.33;100.00;101576.97;5072890;28;20104;-70
2024/03/16 04:21:30;;;;;;;41.90;38.40;;;;;;;2.27;100.00;101583.59;5072070;28;20104;-70
2024/03/16 04:23:57;;;;;;;34.58;31.98;;;;;;;2.10;100.00;101578.97;5073665;28;20051;-70
2024/03/16 04:26:25;;;;;;;38.15;35.00;;;;;;;2.13;100.00;101584.75;5074587;28;20047;-70
2024/03/16 04:28:52;;;;;;;44.50;40.95;;;;;;;2.15;100.00;101584.63;5073456;28;20061;-69
2024/03/16 04:31:19;;;;;;;44.67;41.13;;;;;;;2.19;100.00;101586.03;5073307;28;20051;-69
2024/03/16 04:33:46;;;;;;;41.67;38.72;;;;;;;2.08;100.00;101588.72;5072924;28;20473;-69
2024/03/16 04:36:13;;;;;;;38.10;35.30;;;;;;;2.08;100.00;101583.50;5068678;28;20059;-69
2024/03/16 04:38:40;;;;;;;42.25;39.15;;;;;;;2.15;100.00;101588.09;5072794;28;20435;-70
2024/03/16 04:41:07;;;;;;;41.83;38.45;;;;;;;2.16;100.00;101595.00;5071166;28;20048;-70
2024/03/16 04:43:34;;;;;;;40.35;37.35;;;;;;;2.01;100.00;101591.88;5070515;28;20051;-70
2024/03/16 04:46:02;;;;;;;36.25;33.67;;;;;;;2.11;100.00;101588.47;5071688;28;20055;-70
2024/03/16 04:48:29;;;;;;;36.55;33.75;;;;;;;2.13;100.00;101590.00;5071795;28;20048;-70
2024/03/16 04:50:56;;;;;;;38.55;35.75;;;;;;;2.12;100.00;101593.59;5072173;28;20055;-70
2024/03/16 04:53:23;;;;;;;40.40;37.67;;;;;;;2.22;100.00;101591.03;5067225;28;20058;-70
2024/03/16 04:55:52;;;;;;;41.83;38.70;;;;;;;2.20;100.00;101595.56;5069179;28;20125;-70
2024/03/16 04:58:19;;;;;;;39.50;35.45;;;;;;;2.19;100.00;101593.91;5073049;28;20178;-69
2024/03/16 05:00:46;;;;;;;40.97;38.08;;;;;;;2.27;100.00;101594.91;5075220;28;20043;-69
2024/03/16 05:03:13;;;;;;;42.72;39.40;;;;;;;2.41;100.00;101601.59;5071683;28;20080;-70
2024/03/16 05:05:40;;;;;;;39.00;36.10;;;;;;;2.44;100.00;101593.47;5072232;28;20062;-70
2024/03/16 05:08:08;;;;;;;40.20;37.30;;;;;;;2.59;100.00;101600.97;5071586;28;20516;-69
2024/03/16 05:10:35;;;;;;;37.63;34.83;;;;;;;2.74;100.00;101597.03;5070357;28;20433;-70
2024/03/16 05:13:02;;;;;;;37.40;34.60;;;;;;;2.75;100.00;101606.56;5070061;28;20043;-70
2024/03/16 05:15:29;;;;;;;39.30;36.50;;;;;;;2.84;100.00;101604.94;5071692;28;20124;-71
2024/03/16 05:17:57;;;;;;;39.75;36.85;;;;;;;3.06;100.00;101611.78;5072741;28;20126;-70
2024/03/16 05:20:24;;;;;;;45.10;41.72;;;;;;;3.05;100.00;101616.16;5071891;28;20086;-69
2024/03/16 05:22:52;;;;;;;43.00;40.10;;;;;;;2.93;100.00;101615.44;5068944;28;20120;-70
2024/03/16 05:25:19;;;;;;;41.85;38.97;;;;;;;2.90;100.00;101635.88;5067572;28;20047;-70
2024/03/16 05:27:46;;;;;;;44.97;41.53;;;;;;;3.10;100.00;101626.28;5102121;28;20058;-70
2024/03/16 05:30:13;;;;;;;41.78;38.58;;;;;;;3.25;100.00;101622.31;5070408;28;20408;-68
2024/03/16 05:32:41;;;;;;;44.13;40.63;;;;;;;3.26;100.00;101631.81;5068593;28;20499;-70
2024/03/16 05:35:08;;;;;;;50.22;46.63;;;;;;;3.43;100.00;101628.53;5068505;28;20063;-71
2024/03/16 05:37:36;;;;;;;49.45;45.75;;;;;;;3.48;100.00;101625.53;5070986;28;20109;-67
2024/03/16 05:40:03;;;;;;;48.20;44.50;;;;;;;3.79;100.00;101639.34;5069592;28;20504;-68
2024/03/16 05:42:30;;;;;;;53.72;49.90;;;;;;;3.77;100.00;101635.19;5071086;28;20598;-68
2024/03/16 05:44:59;;;;;;;46.55;43.05;;;;;;;3.73;100.00;101628.56;5070698;28;20048;-68
2024/03/16 05:47:26;;;;;;;48.15;44.63;;;;;;;3.98;100.00;101627.16;5069049;28;20051;-68
2024/03/16 05:49:53;;;;;;;47.05;43.65;;;;;;;4.02;100.00;101631.97;5066546;28;20097;-68
2024/03/16 05:52:20;;;;;;;48.05;44.13;;;;;;;4.43;100.00;101626.50;5068838;28;20060;-68
2024/03/16 05:54:47;;;;;;;55.00;51.00;;;;;;;4.56;100.00;101632.25;5063747;28;20051;-68
2024/03/16 05:57:14;;;;;;;79.57;73.88;;;;;;;8.77;100.00;101633.00;5067557;28;20112;-68
2024/03/16 05:59:41;;;;;;;63.03;58.53;;;;;;;5.97;100.00;101624.72;5068950;28;20087;-68
2024/03/16 06:02:08;;;;;;;46.75;42.72;;;;;;;5.40;100.00;101623.38;5069043;28;20183;-68
2024/03/16 06:04:36;;;;;;;47.70;44.25;;;;;;;5.42;100.00;101622.25;5068893;28;20059;-68
2024/03/16 06:07:03;;;;;;;56.55;52.15;;;;;;;5.51;100.00;101625.78;5070566;28;20517;-68
2024/03/16 06:09:30;;;;;;;56.00;51.85;;;;;;;5.44;100.00;101620.25;5068583;28;20047;-68
2024/03/16 06:11:57;;;;;;;55.15;50.95;;;;;;;5.59;100.00;101630.28;5069937;28;20055;-68
2024/03/16 06:14:24;;;;;;;53.58;49.47;;;;;;;5.80;100.00;101633.44;5069346;28;20104;-69
2024/03/16 06:16:51;;;;;;;58.08;53.58;;;;;;;5.96;100.00;101628.34;5070795;28;20108;-68
2024/03/16 06:19:18;;;;;;;57.53;53.08;;;;;;;6.03;100.00;101633.00;5069899;28;20086;-68
2024/03/16 06:21:45;;;;;;;41.95;38.85;;;;;;;6.18;100.00;101626.19;5070495;28;20793;-68
2024/03/16 06:24:12;;;;;;;37.15;34.35;;;;;;;6.31;100.00;101626.59;5071499;28;20047;-68
2024/03/16 06:26:41;;;;;;;37.13;34.33;;;;;;;6.36;100.00;101626.13;5070605;28;20055;-68
2024/03/16 06:29:08;;;;;;;39.95;36.75;;;;;;;6.51;100.00;101632.47;5070380;28;20052;-68
2024/03/16 06:31:37;;;;;;;42.60;39.40;;;;;;;6.72;100.00;101632.09;5070747;28;20139;-68
2024/03/16 06:34:05;;;;;;;39.45;36.13;;;;;;;6.83;100.00;101637.06;5071816;28;20665;-69
2024/03/16 06:36:32;;;;;;;40.35;37.25;;;;;;;6.77;100.00;101632.44;5070417;28;20513;-69
2024/03/16 06:39:00;;;;;;;42.88;39.67;;;;;;;6.92;100.00;101637.94;5069616;28;20062;-69
2024/03/16 06:41:27;;;;;;;38.47;35.58;;;;;;;7.15;100.00;101632.09;5071411;28;20075;-69
2024/03/16 06:43:55;;;;;;;42.83;39.05;;;;;;;7.36;100.00;101637.75;5069695;28;20039;-69
2024/03/16 06:46:22;;;;;;;45.15;41.55;;;;;;;7.39;100.00;101644.53;5070454;28;20486;-69
2024/03/16 06:48:50;;;;;;;45.22;41.67;;;;;;;8.06;100.00;101641.75;5070755;28;20166;-69
2024/03/16 06:51:18;;;;;;;43.47;40.17;;;;;;;7.99;100.00;101642.44;5069534;28;20050;-69
2024/03/16 06:53:47;;;;;;;42.95;39.53;;;;;;;7.99;100.00;101647.72;5069013;28;20055;-69
2024/03/16 06:56:14;;;;;;;42.92;39.60;;;;;;;8.27;100.00;101650.81;5069268;28;20517;-69
2024/03/16 06:58:41;;;;;;;45.63;41.88;;;;;;;8.11;100.00;101653.50;5070188;28;20062;-70
2024/03/16 07:01:12;;;;;;;43.08;39.70;;;;;;;8.65;100.00;101647.63;5069636;28;20058;-70
2024/03/16 07:03:40;;;;;;;46.17;42.72;;;;;;;8.54;100.00;101654.13;5071585;28;20055;-69
2024/03/16 07:06:08;;;;;;;46.70;43.30;;;;;;;8.68;100.00;101649.91;5071014;28;20058;-70
2024/03/16 07:08:35;;;;;;;47.83;44.08;;;;;;;9.07;100.00;101652.56;5072099;28;20051;-70
2024/03/16 07:11:02;;;;;;;47.38;43.28;;;;;;;9.03;100.00;101658.41;5067467;28;20056;-70
2024/03/16 07:13:29;;;;;;;45.15;41.55;;;;;;;9.31;100.00;101645.50;5071546;28;20047;-70
2024/03/16 07:15:57;;;;;;;46.40;42.67;;;;;;;9.17;100.00;101641.78;5071855;28;20093;-70
2024/03/16 07:18:24;;;;;;;46.55;42.78;;;;;;;9.63;100.00;101645.28;5069344;28;20047;-70
2024/03/16 07:20:51;;;;;;;44.08;40.50;;;;;;;9.58;100.00;101639.69;5070281;28;20047;-70
2024/03/16 07:23:18;;;;;;;43.38;40.08;;;;;;;9.27;100.00;101647.69;5103836;28;20172;-69
2024/03/16 07:25:49;;;;;;;41.85;38.65;;;;;;;9.72;100.00;101639.94;5070668;28;20056;-71
2024/03/16 07:28:17;;;;;;;41.65;38.45;;;;;;;9.86;100.00;101634.69;5070021;28;20069;-70
2024/03/16 07:30:44;;;;;;;43.20;40.00;;;;;;;9.95;100.00;101640.72;5069231;28;20123;-70
2024/03/16 07:33:13;;;;;;;46.08;42.47;;;;;;;10.10;100.00;101640.75;5071826;28;20060;-70
2024/03/16 07:35:42;;;;;;;45.90;42.60;;;;;;;10.34;100.00;101647.69;5069737;28;20690;-70
2024/03/16 07:38:09;;;;;;;45.85;42.55;;;;;;;10.45;100.00;101639.28;5069685;28;20135;-71
2024/03/16 07:40:36;;;;;;;48.90;45.20;;;;;;;11.00;100.00;101645.13;5067543;28;20055;-70
2024/03/16 07:43:04;;;;;;;46.35;42.70;;;;;;;10.98;100.00;101641.81;5070925;28;20059;-70
2024/03/16 07:45:31;;;;;;;43.53;40.22;;;;;;;11.51;100.00;101637.09;5100949;28;20079;-70
2024/03/16 07:47:58;;;;;;;48.13;43.97;;;;;;;11.39;100.00;101641.25;5071621;28;20054;-70
2024/03/16 07:50:25;;;;;;;48.97;43.95;;;;;;;12.31;100.00;101637.78;5071720;28;20039;-71
2024/03/16 07:52:52;;;;;;;40.35;37.42;;;;;;;11.89;100.00;101644.81;5072841;28;20466;-71
2024/03/16 07:55:19;;;;;;;41.05;37.67;;;;;;;11.85;100.00;101640.91;5068174;28;20055;-70
2024/03/16 07:57:47;;;;;;;42.08;38.97;;;;;;;11.93;100.00;101645.28;5071836;28;20195;-70
2024/03/16 08:00:15;;;;;;;41.88;38.88;;;;;;;12.18;100.00;101637.69;5071375;28;20092;-70
2024/03/16 08:02:42;;;;;;;39.28;36.58;;;;;;;12.39;100.00;101645.63;5069327;28;20050;-69
2024/03/16 08:05:11;;;;;;;40.28;37.67;;;;;;;12.82;100.00;101637.44;5071140;28;20054;-69
2024/03/16 08:07:38;;;;;;;49.30;45.95;;;;;;;13.13;100.00;101638.78;5070864;28;20055;-70
2024/03/16 08:10:07;;;;;;;42.15;39.17;;;;;;;13.03;100.00;101636.50;5071290;28;20062;-70
2024/03/16 08:12:34;;;;;;;37.13;34.63;;;;;;;12.89;100.00;101640.13;5072314;28;20503;-69
2024/03/16 08:15:01;;;;;;;45.17;42.47;;;;;;;12.89;100.00;101632.97;5072982;28;20857;-70
2024/03/16 08:17:28;;;;;;;33.88;31.67;;;;;;;12.87;100.00;101635.00;5068251;28;20476;-70
2024/03/16 08:19:56;;;;;;;33.47;31.27;;;;;;;12.72;100.00;101635.16;5071026;28;20105;-70
2024/03/16 08:22:23;;;;;;;34.58;32.28;;;;;;;13.24;100.00;101640.88;5071330;28;20572;-70
2024/03/16 08:24:50;;;;;;;37.15;34.65;;;;;;;13.05;100.00;101632.63;5072024;28;20054;-70
2024/03/16 08:27:17;;;;;;;39.17;36.83;;;;;;;14.12;100.00;101624.78;5067934;28;20056;-70
2024/03/16 08:29:44;;;;;;;38.30;36.05;;;;;;;13.92;100.00;101624.81;5073368;28;20051;-70
2024/03/16 08:32:12;;;;;;;37.47;35.28;;;;;;;14.18;100.00;101621.28;5072968;28;20063;-69
2024/03/16 08:34:39;;;;;;;33.72;31.63;;;;;;;14.27;100.00;101621.88;5070927;28;20047;-70
2024/03/16 08:37:06;;;;;;;32.63;30.48;;;;;;;14.35;100.00;101616.31;5071988;28;20063;-70
2024/03/16 08:39:33;;;;;;;34.65;32.25;;;;;;;15.16;100.00;101617.69;5072336;28;20058;-70
2024/03/16 08:42:00;;;;;;;34.08;31.98;;;;;;;14.36;100.00;101617.97;5105395;28;20051;-70
2024/03/16 08:44:28;;;;;;;32.35;30.35;;;;;;;14.64;100.00;101613.19;5073140;28;20055;-70
2024/03/16 08:46:55;;;;;;;33.35;31.15;;;;;;;14.85;100.00;101611.25;5071310;28;20048;-71
2024/03/16 08:49:22;;;;;;;33.63;31.42;;;;;;;15.18;100.00;101611.06;5071914;28;20488;-69
2024/03/16 08:51:49;;;;;;;37.03;34.63;;;;;;;15.02;100.00;101612.41;5072964;28;20039;-69
2024/03/16 08:54:16;;;;;;;38.33;35.92;;;;;;;14.47;100.00;101613.84;5071321;28;20048;-69
2024/03/16 08:56:43;;;;;;;38.88;36.58;;;;;;;14.97;100.00;101612.22;5071674;28;20060;-69
2024/03/16 08:59:12;;;;;;;37.83;35.53;;;;;;;15.23;100.00;101605.09;5070604;28;20559;-69
2024/03/16 09:01:39;;;;;;;38.33;35.83;;;;;;;15.10;100.00;101608.69;5071881;28;20044;-72
2024/03/16 09:04:08;;;;;;;35.47;33.28;;;;;;;15.48;100.00;101595.25;5072553;28;20082;-68
2024/03/16 09:06:38;;;;;;;33.72;31.63;;;;;;;14.76;100.00;101602.63;5072215;28;20054;-69
2024/03/16 09:09:10;;;;;;;36.15;33.85;;;;;;;14.90;100.00;101595.38;5072688;28;20047;-69
2024/03/16 09:11:37;;;;;;;33.50;31.20;;;;;;;15.23;100.00;101595.22;5068276;28;20057;-68
2024/03/16 09:14:05;;;;;;;33.70;31.40;;;;;;;14.94;100.00;101591.25;5070294;28;20493;-69
2024/03/16 09:16:34;;;;;;;30.65;28.65;;;;;;;14.91;100.00;101601.56;5070636;28;20079;-68
2024/03/16 09:19:01;;;;;;;30.90;28.90;;;;;;;14.69;100.00;101604.53;5071855;28;20614;-68
2024/03/16 09:21:28;;;;;;;30.13;28.23;;;;;;;14.82;100.00;101606.31;5071692;28;20070;-68
2024/03/16 09:23:55;;;;;;;33.50;31.52;;;;;;;15.73;100.00;101599.81;5071040;28;20133;-68
2024/03/16 09:26:22;;;;;;;31.00;29.00;;;;;;;14.55;100.00;101597.56;5066117;28;20724;-69
2024/03/16 09:28:51;;;;;;;29.98;28.02;;;;;;;15.08;100.00;101592.81;5073909;28;20070;-69
2024/03/16 09:31:18;;;;;;;31.90;29.83;;;;;;;14.26;100.00;101597.00;5071143;28;20446;-70
2024/03/16 09:33:45;;;;;;;30.70;28.80;;;;;;;14.29;100.00;101595.78;5072418;28;20044;-70
2024/03/16 09:36:12;;;;;;;30.20;28.13;;;;;;;13.65;100.00;101598.09;5071212;28;20101;-69
2024/03/16 09:38:39;;;;;;;33.15;30.85;;;;;;;12.49;100.00;101599.97;5071930;28;20055;-70
2024/03/16 09:41:06;;;;;;;30.05;28.05;;;;;;;12.71;100.00;101604.19;5071403;28;20144;-69
2024/03/16 09:43:34;;;;;;;32.15;29.83;;;;;;;12.63;100.00;101604.34;5070687;28;20120;-68
2024/03/16 09:46:04;;;;;;;31.13;28.52;;;;;;;12.41;100.00;101608.16;5101971;28;20052;-71
2024/03/16 09:48:31;;;;;;;31.80;29.40;;;;;;;11.38;100.00;101603.22;5073456;28;20078;-69
2024/03/16 09:50:58;;;;;;;32.05;29.75;;;;;;;13.09;100.00;101602.88;5072644;28;20051;-69
2024/03/16 09:53:26;;;;;;;32.25;30.05;;;;;;;13.32;100.00;101598.06;5071965;28;20055;-68
2024/03/16 09:55:56;;;;;;;30.60;28.60;;;;;;;13.07;100.00;101597.75;5065834;28;20075;-68
2024/03/16 09:58:23;;;;;;;31.52;29.42;;;;;;;13.43;100.00;101596.63;5072311;28;20100;-68
2024/03/16 10:00:50;;;;;;;34.38;31.95;;;;;;;14.12;100.00;101588.19;5071423;28;20048;-68
2024/03/16 10:03:18;;;;;;;32.00;30.00;;;;;;;14.99;100.00;101582.59;5070963;28;20451;-68
2024/03/16 10:05:45;;;;;;;33.15;30.95;;;;;;;14.75;100.00;101586.81;5070762;28;20112;-68
2024/03/16 10:08:17;;;;;;;33.45;31.45;;;;;;;14.36;100.00;101584.03;5068840;28;20116;-68
2024/03/16 10:10:44;;;;;;;33.43;31.13;;;;;;;14.59;100.00;101590.78;5072249;28;20044;-68
2024/03/16 10:13:11;;;;;;;38.25;35.67;;;;;;;13.21;100.00;101580.75;5070777;28;20051;-68
2024/03/16 10:15:42;;;;;;;35.58;33.28;;;;;;;14.16;100.00;101580.56;5070950;28;20047;-69
2024/03/16 10:18:10;;;;;;;34.33;32.08;;;;;;;14.86;100.00;101576.28;5070890;28;20443;-70
2024/03/16 10:20:37;;;;;;;36.45;34.03;;;;;;;14.44;100.00;101577.66;5070116;28;20046;-69
2024/03/16 10:23:05;;;;;;;34.65;32.65;;;;;;;14.83;100.00;101573.22;5070136;28;20047;-70
2024/03/16 10:25:32;;;;;;;36.13;33.72;;;;;;;15.30;100.00;101566.53;5069717;28;20762;-70
2024/03/16 10:28:00;;;;;;;33.70;31.60;;;;;;;14.27;100.00;101574.59;5069284;28;20058;-69
2024/03/16 10:30:28;;;;;;;33.80;31.60;;;;;;;16.46;100.00;101570.47;5069008;28;20054;-70
2024/03/16 10:32:56;;;;;;;33.30;30.77;;;;;;;15.27;100.00;101568.81;5103071;28;20471;-70
2024/03/16 10:35:26;;;;;;;35.20;33.00;;;;;;;15.90;100.00;101568.78;5070028;28;20050;-68
2024/03/16 10:37:53;;;;;;;34.42;32.13;;;;;;;15.63;100.00;101575.38;5070339;28;20416;-70
2024/03/16 10:40:21;;;;;;;36.28;34.08;;;;;;;14.89;100.00;101569.69;5068578;28;20044;-69
2024/03/16 10:42:50;;;;;;;33.35;31.25;;;;;;;14.91;100.00;101570.28;5069216;28;20047;-69
2024/03/16 10:45:17;;;;;;;29.63;27.73;;;;;;;16.72;100.00;101571.16;5070045;28;20082;-69
2024/03/16 10:47:45;;;;;;;33.13;30.92;;;;;;;14.80;100.00;101568.28;5103844;28;20055;-69
2024/03/16 10:50:12;;;;;;;33.28;31.13;;;;;;;13.51;100.00;101572.41;5070279;28;20059;-69
2024/03/16 10:52:41;;;;;;;30.15;28.25;;;;;;;15.16;100.00;101564.16;5069264;28;20047;-69
2024/03/16 10:55:22;;;;;;;31.70;29.80;;;;;;;15.11;100.00;101567.50;5064847;28;20687;-69
2024/03/16 10:57:49;;;;;;;34.35;32.35;;;;;;;13.78;100.00;101565.22;5069841;28;20074;-69
2024/03/16 11:00:29;;;;;;;32.92;30.92;;;;;;;14.87;100.00;101564.53;5066856;28;20044;-69
2024/03/16 11:03:00;;;;;;;34.35;32.15;;;;;;;14.39;100.00;101566.75;5067645;28;20055;-69
2024/03/16 11:05:35;;;;;;;34.50;32.40;;;;;;;15.65;100.00;101567.94;5069301;28;20062;-70
2024/03/16 11:08:02;;;;;;;35.40;33.15;;;;;;;16.69;100.00;101563.56;5069605;28;20596;-70